For water level readings from Victoria harbour, visit our Tides page.

DISCLAIMER: Although GVHA takes care to produce accurate readings from Ogden Point, the weather information on this site is raw data fed directly from sensors. It does not go through the same quality control processes used by professional weather services, and should not be relied on as a sole source of weather information for Victoria harbour.

In-depth weather values from Victoria Harbour can be found on the Environment Canada website.

Location: Ogden Point Breakwater

Current time: May 31, 2020 5:42 PM GMT | May 31, 2020 10:42 AM

Last Hour Last 3 Hours Last 6 Hours Last 12 Hours
Time Peak Wind Speed Avg Speed Avg Direction Avg Air Temp Avg Dew Point Avg Humidity
May 31, 2020 10:40 AM 25.8 knots 20.3 knots 212° True 12.1° C / 54.2° F 4.2° C / 38.4° F 58.3%
May 31, 2020 10:30 AM 23.4 knots 19.5 knots 218° True 12.2° C / 54.4° F 3.5° C / 37° F 55.2%
May 31, 2020 10:20 AM 25.9 knots 21.2 knots 216° True 12.4° C / 54.8° F 3.5° C / 37° F 54.5%
May 31, 2020 10:10 AM 25.8 knots 21.2 knots 222° True 12.3° C / 54.6° F 3.4° C / 36.8° F 54.5%
May 31, 2020 10:00 AM 22.8 knots 18.8 knots 218° True 12.2° C / 54.4° F 4.1° C / 38.2° F 57.6%
May 31, 2020 09:50 AM 28.9 knots 19.6 knots 218° True 12.1° C / 54.2° F 4° C / 38° F 57.6%
May 31, 2020 09:40 AM 22.4 knots 16.7 knots 207° True 11.7° C / 53.4° F 5.6° C / 41.2° F 66.6%
May 31, 2020 09:30 AM 25.7 knots 19.1 knots 226° True 12° C / 54° F 3.6° C / 37.2° F 56.5%
May 31, 2020 09:20 AM 26.3 knots 18.4 knots 218° True 11.5° C / 53° F 5.3° C / 40.6° F 65.8%
May 31, 2020 09:10 AM 21.7 knots 17.2 knots 212° True 11.4° C / 52.8° F 6.1° C / 42.2° F 69.7%
May 31, 2020 09:00 AM 18 knots 15.9 knots 213° True 11.2° C / 52.4° F 6.6° C / 43.2° F 73.6%
May 31, 2020 08:50 AM 19.9 knots 17.7 knots 217° True 11.2° C / 52.4° F 6.5° C / 43° F 72.9%
May 31, 2020 08:40 AM 22.6 knots 18.5 knots 219° True 11.2° C / 52.4° F 6.3° C / 42.6° F 72%
May 31, 2020 08:30 AM 23.9 knots 18.6 knots 224° True 10.9° C / 51.8° F 6.6° C / 43.2° F 74.8%
May 31, 2020 08:20 AM 24.4 knots 19.9 knots 220° True 10.9° C / 51.8° F 6.9° C / 43.8° F 76.3%
May 31, 2020 08:10 AM 22.6 knots 19.5 knots 222° True 11° C / 52° F 6.8° C / 43.6° F 75.3%
May 31, 2020 08:00 AM 24.9 knots 19.3 knots 223° True 11° C / 52° F 6.9° C / 43.8° F 75.7%
May 31, 2020 07:50 AM 24.8 knots 20.2 knots 221° True 11° C / 52° F 6.8° C / 43.6° F 75.5%
May 31, 2020 07:40 AM 23.6 knots 19.3 knots 223° True 10.8° C / 51.6° F 6.9° C / 43.8° F 77.2%
May 31, 2020 07:30 AM 24.2 knots 20 knots 221° True 10.7° C / 51.4° F 6.9° C / 43.8° F 77.3%
May 31, 2020 07:20 AM 25.1 knots 20.1 knots 221° True 10.7° C / 51.4° F 7° C / 44° F 77.8%
May 31, 2020 07:10 AM 23.5 knots 19.7 knots 221° True 10.7° C / 51.4° F 7° C / 44° F 78.2%
May 31, 2020 07:00 AM 22.7 knots 19.2 knots 222° True 10.5° C / 51° F 7.1° C / 44.2° F 79.4%
May 31, 2020 06:50 AM 22.8 knots 20 knots 221° True 10.5° C / 51° F 7.1° C / 44.2° F 79.6%
May 31, 2020 06:40 AM 24.4 knots 19.9 knots 221° True 10.4° C / 50.8° F 7.1° C / 44.2° F 79.8%
May 31, 2020 06:30 AM 21.3 knots 18 knots 219° True 10.4° C / 50.8° F 7.1° C / 44.2° F 80.1%
May 31, 2020 06:20 AM 23.1 knots 19.6 knots 222° True 10.4° C / 50.8° F 7° C / 44° F 79.4%
May 31, 2020 06:10 AM 25 knots 20.8 knots 225° True 10.5° C / 51° F 6.9° C / 43.8° F 78.6%
May 31, 2020 06:00 AM 26.8 knots 19.8 knots 224° True 10.5° C / 51° F 7° C / 44° F 78.9%
May 31, 2020 05:50 AM 26.8 knots 21.8 knots 225° True 10.5° C / 51° F 7° C / 44° F 78.6%
May 31, 2020 05:40 AM 28.3 knots 22.7 knots 222° True 10.5° C / 51° F 7° C / 44° F 79.2%
May 31, 2020 05:30 AM 30.3 knots 22 knots 219° True 10.5° C / 51° F 7.1° C / 44.2° F 79.3%
May 31, 2020 05:20 AM 25.5 knots 20.1 knots 219° True 10.5° C / 51° F 7.1° C / 44.2° F 79.8%
May 31, 2020 05:10 AM 23.5 knots 20.4 knots 219° True 10.5° C / 51° F 7.1° C / 44.2° F 79.3%
May 31, 2020 05:00 AM 26 knots 21.1 knots 219° True 10.5° C / 51° F 7.1° C / 44.2° F 79.5%
May 31, 2020 04:50 AM 26.9 knots 21.7 knots 219° True 10.6° C / 51.2° F 7.1° C / 44.2° F 79.4%
May 31, 2020 04:40 AM 26.8 knots 20.8 knots 225° True 10.6° C / 51.2° F 7.1° C / 44.2° F 79.4%
May 31, 2020 04:30 AM 26.3 knots 20.8 knots 222° True 10.6° C / 51.2° F 7.2° C / 44.4° F 79.4%
May 31, 2020 04:20 AM 25.8 knots 21.6 knots 220° True 10.6° C / 51.2° F 7.1° C / 44.2° F 78.8%
May 31, 2020 04:10 AM 25 knots 20.4 knots 215° True 10.6° C / 51.2° F 7° C / 44° F 78.6%
May 31, 2020 04:00 AM 23.1 knots 19 knots 218° True 10.6° C / 51.2° F 7° C / 44° F 78.3%
May 31, 2020 03:50 AM 23.5 knots 20.1 knots 219° True 10.7° C / 51.4° F 6.9° C / 43.8° F 77.1%
May 31, 2020 03:40 AM 24.5 knots 19 knots 220° True 10.8° C / 51.6° F 6.7° C / 43.4° F 75.9%
May 31, 2020 03:30 AM 23.7 knots 17.4 knots 227° True 10.7° C / 51.4° F 6.9° C / 43.8° F 77.4%
May 31, 2020 03:20 AM 24.7 knots 18.4 knots 233° True 10.7° C / 51.4° F 6.7° C / 43.4° F 76.3%
May 31, 2020 03:10 AM 19.8 knots 16.6 knots 224° True 10.7° C / 51.4° F 6.9° C / 43.8° F 77%
May 31, 2020 03:00 AM 21.5 knots 15 knots 227° True 10.8° C / 51.6° F 6.7° C / 43.4° F 75.7%
May 31, 2020 02:50 AM 18.8 knots 14.5 knots 229° True 10.9° C / 51.8° F 6.5° C / 43° F 74.4%
May 31, 2020 02:40 AM 20.6 knots 15.8 knots 236° True 10.8° C / 51.6° F 6.5° C / 43° F 74.4%
May 31, 2020 02:30 AM 18.9 knots 14.7 knots 237° True 10.8° C / 51.6° F 6.7° C / 43.4° F 75.5%
May 31, 2020 02:20 AM 24.2 knots 16.8 knots 226° True 10.8° C / 51.6° F 6.7° C / 43.4° F 75.6%
May 31, 2020 02:10 AM 21.8 knots 15.8 knots 227° True 10.8° C / 51.6° F 6.8° C / 43.6° F 76.5%
May 31, 2020 02:00 AM 21.5 knots 15.7 knots 231° True 10.8° C / 51.6° F 6.9° C / 43.8° F 77%
May 31, 2020 01:50 AM 23.6 knots 14.8 knots 234° True 10.7° C / 51.4° F 7° C / 44° F 77.8%
May 31, 2020 01:40 AM 19.9 knots 15.8 knots 232° True 10.7° C / 51.4° F 7.2° C / 44.4° F 78.6%
May 31, 2020 01:30 AM 27.9 knots 18.6 knots 228° True 10.8° C / 51.6° F 7° C / 44° F 77.7%
May 31, 2020 01:20 AM 25.6 knots 19.5 knots 226° True 10.8° C / 51.6° F 7° C / 44° F 77.7%
May 31, 2020 01:10 AM 25.3 knots 19 knots 218° True 10.7° C / 51.4° F 7.1° C / 44.2° F 78.1%
May 31, 2020 01:00 AM 24.2 knots 17.4 knots 215° True 10.8° C / 51.6° F 7.1° C / 44.2° F 78.2%
May 31, 2020 12:50 AM 22.5 knots 15.5 knots 221° True 10.9° C / 51.8° F 7.1° C / 44.2° F 77.4%
May 31, 2020 12:40 AM 23.6 knots 16.8 knots 215° True 10.9° C / 51.8° F 6.9° C / 43.8° F 76.5%
May 31, 2020 12:30 AM 24.8 knots 19.3 knots 216° True 10.9° C / 51.8° F 6.9° C / 43.8° F 76.3%
May 31, 2020 12:20 AM 24.9 knots 19.1 knots 215° True 10.9° C / 51.8° F 7° C / 44° F 76.4%
May 31, 2020 12:10 AM 23.8 knots 19.9 knots 212° True 11° C / 52° F 7° C / 44° F 76.2%
May 31, 2020 12:00 AM 26.7 knots 21 knots 213° True 11° C / 52° F 6.9° C / 43.8° F 75.4%
May 30, 2020 11:50 PM 26.7 knots 21 knots 219° True 11° C / 52° F 6.9° C / 43.8° F 76%
May 30, 2020 11:40 PM 24.4 knots 20.2 knots 224° True 11° C / 52° F 6.9° C / 43.8° F 76%
May 30, 2020 11:30 PM 25.4 knots 20.8 knots 219° True 11.1° C / 52.2° F 6.9° C / 43.8° F 75.3%
May 30, 2020 11:20 PM 26.4 knots 19.4 knots 226° True 11° C / 52° F 7° C / 44° F 76.2%
May 30, 2020 11:10 PM 25.6 knots 19.1 knots 224° True 11° C / 52° F 7° C / 44° F 76.4%
May 30, 2020 11:00 PM 24.8 knots 18.8 knots 214° True 11.1° C / 52.2° F 7.1° C / 44.2° F 76.5%
May 30, 2020 10:50 PM 22.3 knots 17.6 knots 219° True 11.1° C / 52.2° F 7.1° C / 44.2° F 76.3%